Wild Peach Village, Texas
Current Conditions -  °F | °C
As of 2:53 PM on Thursday 18 Dec 2014 (Local Time) from KLBX Reporting Station
Overcast Overcast  
Wind Chill: 72°   Ceiling: 3500
Heat Index: 72°   Visibility: 10mi
Dew Point: 67°   Wind: 5mph
Humidity: 84%   Direction: 40°NE
Pressure: 30.01"   Gusts: NA
Location:  28.9272°N, 95.5834°W
Report Text: KLBX 182053Z AUTO 04004KT 10SM SCT027 BKN035 OVC060 22/19 A3001 RMK AO2 SLP160 60000 T02220194 56015
Loading
Personal Weather Stations






























Interactive Weather Map New forecast layout! Learn more

10-Day Weather Forecast

Advertisements
Track Severe Weather on mobile